Time;durP1;ratioP1;P1;durP2;ratioP2;P2;SDS_P1;SDS_P2;PMS_P1;PMS_P2;Temp;Humidity;BMP_temperature;BMP_pressure;BME280_temperature;BME280_humidity;BME280_pressure;Samples;Min_cycle;Max_cycle;Signal;HPM_P1;HPM_P2
2021/06/18 00:01:43;;;;;;;21.77;12.65;;;23.60;99.90;;;;;;5094036;28;20030;-69
2021/06/18 00:04:09;;;;;;;16.88;12.75;;;23.60;99.90;;;;;;5093788;28;20461;-69
2021/06/18 00:06:34;;;;;;;17.83;12.40;;;23.50;99.90;;;;;;5092217;28;20047;-69
2021/06/18 00:09:01;;;;;;;20.65;12.73;;;23.50;99.90;;;;;;5092825;28;20051;-69
2021/06/18 00:11:26;;;;;;;14.90;12.18;;;23.40;99.90;;;;;;5093434;28;20036;-69
2021/06/18 00:13:52;;;;;;;18.13;13.68;;;23.40;99.90;;;;;;5092800;28;20024;-69
2021/06/18 00:16:17;;;;;;;16.90;13.27;;;23.30;99.90;;;;;;5093845;28;20024;-69
2021/06/18 00:18:43;;;;;;;15.38;12.85;;;23.30;99.90;;;;;;5093646;28;20024;-69
2021/06/18 00:21:08;;;;;;;18.80;12.65;;;23.30;99.90;;;;;;5093876;28;20350;-69
2021/06/18 00:23:34;;;;;;;18.00;11.73;;;23.20;99.90;;;;;;5075238;28;20012;-69
2021/06/18 00:26:00;;;;;;;18.70;12.32;;;23.10;99.90;;;;;;5093823;28;20115;-69
2021/06/18 00:28:25;;;;;;;19.77;12.88;;;23.10;99.90;;;;;;5093804;28;20052;-69
2021/06/18 00:30:51;;;;;;;19.38;13.88;;;23.10;99.90;;;;;;5093222;28;20099;-69
2021/06/18 00:33:16;;;;;;;21.05;14.23;;;23.00;99.90;;;;;;5092517;28;20354;-69
2021/06/18 00:35:42;;;;;;;17.70;12.75;;;23.00;99.90;;;;;;5093722;28;20026;-69
2021/06/18 00:38:08;;;;;;;20.13;14.05;;;23.00;99.90;;;;;;5093641;28;20485;-69
2021/06/18 00:40:34;;;;;;;17.27;13.80;;;23.00;99.90;;;;;;5092238;28;20013;-69
2021/06/18 00:42:59;;;;;;;16.63;12.48;;;23.00;99.90;;;;;;5094299;28;20358;-69
2021/06/18 00:45:25;;;;;;;15.07;12.55;;;22.90;99.90;;;;;;5095824;28;20024;-69
2021/06/18 00:47:56;;;;;;;26.85;16.08;;;22.80;99.90;;;;;;5097506;28;20427;-69
2021/06/18 00:50:22;;;;;;;19.08;14.05;;;22.70;99.90;;;;;;5096350;28;20021;-69
2021/06/18 00:52:48;;;;;;;19.73;13.50;;;22.60;99.90;;;;;;5095547;28;20495;-69
2021/06/18 00:55:14;;;;;;;21.58;15.13;;;22.40;99.90;;;;;;5097369;28;20052;-70
2021/06/18 00:57:40;;;;;;;23.73;15.35;;;22.40;99.90;;;;;;5095544;28;20429;-69
2021/06/18 01:00:08;;;;;;;21.58;15.15;;;22.40;99.90;;;;;;5097237;28;20025;-69
2021/06/18 01:02:33;;;;;;;21.80;13.82;;;22.40;99.90;;;;;;5078668;28;20035;-69
2021/06/18 01:04:59;;;;;;;21.20;14.63;;;22.40;99.90;;;;;;5095457;28;20024;-69
2021/06/18 01:07:31;;;;;;;21.52;14.95;;;22.40;99.90;;;;;;5095298;28;20063;-69
2021/06/18 01:10:20;;;;;;;16.30;14.60;;;22.40;99.90;;;;;;5095268;28;20030;-69
2021/06/18 01:13:14;;;;;;;16.77;13.32;;;22.30;99.90;;;;;;5095232;28;20053;-69
2021/06/18 01:16:03;;;;;;;20.25;16.08;;;22.30;99.90;;;;;;5096306;28;20036;-69
2021/06/18 01:18:41;;;;;;;21.50;15.27;;;22.20;99.90;;;;;;5096460;28;20469;-69
2021/06/18 01:21:18;;;;;;;19.77;14.88;;;22.20;99.90;;;;;;5096574;28;20103;-69
2021/06/18 01:23:53;;;;;;;20.83;17.40;;;22.10;99.90;;;;;;5095720;28;20024;-69
2021/06/18 01:26:58;;;;;;;21.63;16.67;;;22.00;99.90;;;;;;5095313;28;20103;-69
2021/06/18 01:29:25;;;;;;;20.50;16.00;;;22.00;99.90;;;;;;5094754;28;20020;-69
2021/06/18 01:31:50;;;;;;;19.08;15.43;;;21.90;99.90;;;;;;5096376;28;20486;-69
2021/06/18 01:34:23;;;;;;;19.27;15.52;;;22.00;99.90;;;;;;5096596;28;20031;-69
2021/06/18 01:36:54;;;;;;;19.45;15.73;;;21.90;99.90;;;;;;5096472;28;20063;-69
2021/06/18 01:39:21;;;;;;;17.95;15.32;;;21.90;99.90;;;;;;5096194;28;20021;-69
2021/06/18 01:41:49;;;;;;;19.73;17.60;;;21.90;99.90;;;;;;5095315;28;20157;-69
2021/06/18 01:44:16;;;;;;;19.60;16.90;;;21.80;99.90;;;;;;5094890;28;20441;-69
2021/06/18 01:46:44;;;;;;;22.33;17.40;;;21.80;99.90;;;;;;5096071;28;20024;-69
2021/06/18 01:49:12;;;;;;;22.83;16.25;;;21.70;99.90;;;;;;5096294;28;20031;-69
2021/06/18 01:51:39;;;;;;;20.90;16.83;;;21.70;99.90;;;;;;5094799;28;20035;-69
2021/06/18 01:54:07;;;;;;;25.92;18.75;;;21.70;99.90;;;;;;5096096;28;20111;-69
2021/06/18 01:56:35;;;;;;;23.23;18.95;;;21.70;99.90;;;;;;5094318;28;20508;-69
2021/06/18 01:59:03;;;;;;;27.88;19.88;;;21.70;99.90;;;;;;5094624;28;20043;-69
2021/06/18 02:01:34;;;;;;;25.40;18.77;;;21.70;99.90;;;;;;5095091;28;20020;-69
2021/06/18 02:04:00;;;;;;;24.52;17.85;;;21.70;99.90;;;;;;5077326;28;20024;-69
2021/06/18 02:06:27;;;;;;;25.27;17.80;;;21.70;99.90;;;;;;5095395;28;20034;-69
2021/06/18 02:08:57;;;;;;;20.25;16.67;;;21.70;99.90;;;;;;5095864;28;20020;-69
2021/06/18 02:11:24;;;;;;;24.80;16.83;;;21.70;99.90;;;;;;5095318;28;20024;-69
2021/06/18 02:13:52;;;;;;;19.35;15.35;;;21.60;99.90;;;;;;5094244;28;20412;-69
2021/06/18 02:16:18;;;;;;;20.58;17.35;;;21.50;99.90;;;;;;5093899;28;20032;-69
2021/06/18 02:18:44;;;;;;;23.45;18.83;;;21.50;99.90;;;;;;5093868;28;20405;-69
2021/06/18 02:21:13;;;;;;;21.52;15.52;;;21.50;99.90;;;;;;5095403;28;20106;-69
2021/06/18 02:23:41;;;;;;;19.90;16.75;;;21.40;99.90;;;;;;5095102;28;20039;-69
2021/06/18 02:26:08;;;;;;;21.30;16.33;;;21.30;99.90;;;;;;5093802;28;20031;-69
2021/06/18 02:28:34;;;;;;;20.10;15.10;;;21.20;99.90;;;;;;5095542;28;20367;-70
2021/06/18 02:31:01;;;;;;;23.15;17.65;;;21.10;99.90;;;;;;5095486;28;20020;-69
2021/06/18 02:33:27;;;;;;;20.25;16.08;;;21.00;99.90;;;;;;5095435;28;20012;-69
2021/06/18 02:35:53;;;;;;;20.45;15.60;;;21.10;99.90;;;;;;5095321;28;20046;-69
2021/06/18 02:38:19;;;;;;;20.00;15.60;;;21.00;99.90;;;;;;5093549;28;20024;-69
2021/06/18 02:40:46;;;;;;;21.25;16.10;;;21.00;99.90;;;;;;5095044;28;20030;-69
2021/06/18 02:43:12;;;;;;;25.27;17.25;;;21.00;99.90;;;;;;5094951;28;20024;-69
2021/06/18 02:45:38;;;;;;;20.40;16.83;;;21.00;99.90;;;;;;5095203;28;20020;-69
2021/06/18 02:48:27;;;;;;;20.98;16.13;;;21.00;99.90;;;;;;5095182;28;20099;-69
2021/06/18 02:51:24;;;;;;;24.00;16.00;;;21.00;99.90;;;;;;5094744;28;20016;-69
2021/06/18 02:53:56;;;;;;;23.45;17.30;;;20.90;99.90;;;;;;5094989;28;20465;-69
2021/06/18 02:56:39;;;;;;;22.55;16.75;;;20.90;99.90;;;;;;5094674;28;20043;-69
2021/06/18 02:59:35;;;;;;;24.38;18.00;;;20.80;99.90;;;;;;5094962;28;20020;-69
2021/06/18 03:02:03;;;;;;;21.50;17.92;;;20.80;99.90;;;;;;5094336;28;20016;-68
2021/06/18 03:04:32;;;;;;;21.52;17.48;;;20.80;99.90;;;;;;5094872;28;20024;-69
2021/06/18 03:07:03;;;;;;;21.23;17.58;;;20.80;99.90;;;;;;5094252;28;20116;-69
2021/06/18 03:09:36;;;;;;;26.13;18.40;;;20.80;99.90;;;;;;5094458;28;20164;-69
2021/06/18 03:12:04;;;;;;;22.13;17.40;;;20.80;99.90;;;;;;5093366;28;20055;-69
2021/06/18 03:14:35;;;;;;;22.17;18.02;;;20.80;99.90;;;;;;5093191;28;20032;-69
2021/06/18 03:17:03;;;;;;;19.83;17.73;;;20.70;99.90;;;;;;5093146;28;20118;-69
2021/06/18 03:19:32;;;;;;;25.77;17.80;;;20.60;99.90;;;;;;5093166;28;20030;-69
2021/06/18 03:22:01;;;;;;;24.52;19.67;;;20.70;99.90;;;;;;5094570;28;20074;-69
2021/06/18 03:24:30;;;;;;;23.33;18.13;;;20.70;99.90;;;;;;5093496;28;20020;-69
2021/06/18 03:26:57;;;;;;;21.70;18.27;;;20.70;99.90;;;;;;5093028;28;20034;-69
2021/06/18 03:29:25;;;;;;;26.05;18.88;;;20.70;99.90;;;;;;5093257;28;20016;-69
2021/06/18 03:31:53;;;;;;;23.70;17.90;;;20.70;99.90;;;;;;5094106;28;20377;-69
2021/06/18 03:34:19;;;;;;;23.50;18.15;;;20.70;99.90;;;;;;5094376;28;20454;-69
2021/06/18 03:36:46;;;;;;;22.33;15.95;;;20.70;99.90;;;;;;5094265;28;20140;-69
2021/06/18 03:39:12;;;;;;;22.95;17.42;;;20.80;99.90;;;;;;5094300;28;20417;-69
2021/06/18 03:41:37;;;;;;;20.50;18.35;;;20.70;99.90;;;;;;5094278;28;20071;-69
2021/06/18 03:44:03;;;;;;;21.90;19.13;;;20.70;99.90;;;;;;5093955;28;20108;-69
2021/06/18 03:46:30;;;;;;;27.23;19.85;;;20.70;99.90;;;;;;5093954;28;20035;-69
2021/06/18 03:48:58;;;;;;;24.50;19.45;;;20.70;99.90;;;;;;5093221;28;20036;-69
2021/06/18 03:51:24;;;;;;;22.30;18.67;;;20.90;99.90;;;;;;5094165;28;20020;-69
2021/06/18 03:53:49;;;;;;;22.02;17.73;;;21.00;99.90;;;;;;5093299;28;20031;-69
2021/06/18 03:56:16;;;;;;;20.92;17.48;;;21.10;99.90;;;;;;5093818;28;20051;-70
2021/06/18 03:58:43;;;;;;;22.23;17.90;;;21.20;99.90;;;;;;5092297;28;20023;-70
2021/06/18 04:01:11;;;;;;;21.48;16.58;;;21.30;99.90;;;;;;5094086;28;20017;-69
2021/06/18 04:03:39;;;;;;;18.45;16.05;;;21.40;99.90;;;;;;5093818;28;20043;-69
2021/06/18 04:06:06;;;;;;;20.98;14.88;;;21.40;99.90;;;;;;5094010;28;20016;-69
2021/06/18 04:08:36;;;;;;;17.23;14.43;;;21.50;99.90;;;;;;5093735;28;20077;-69
2021/06/18 04:11:05;;;;;;;18.38;16.13;;;21.50;99.90;;;;;;5093974;28;20104;-69
2021/06/18 04:13:31;;;;;;;19.38;15.88;;;21.50;99.90;;;;;;5092516;28;20016;-69
2021/06/18 04:15:57;;;;;;;26.25;15.73;;;21.50;99.90;;;;;;5092950;28;20051;-69
2021/06/18 04:18:24;;;;;;;23.65;16.63;;;21.60;99.90;;;;;;5093702;28;20428;-69
2021/06/18 04:20:51;;;;;;;18.65;16.13;;;21.80;99.90;;;;;;5096182;28;20035;-69
2021/06/18 04:23:18;;;;;;;22.10;16.58;;;21.80;99.90;;;;;;5096156;28;20032;-69
2021/06/18 04:25:44;;;;;;;18.33;14.98;;;21.90;99.90;;;;;;5097931;28;20107;-69
2021/06/18 04:28:09;;;;;;;22.98;15.68;;;21.80;99.90;;;;;;5097589;28;20107;-69
2021/06/18 04:30:35;;;;;;;21.75;15.35;;;21.90;99.90;;;;;;5096375;28;20075;-69
2021/06/18 04:33:01;;;;;;;15.73;14.13;;;22.10;99.90;;;;;;5097482;28;20500;-69
2021/06/18 04:35:26;;;;;;;20.55;15.05;;;22.30;99.90;;;;;;5097716;28;20392;-69
2021/06/18 04:37:52;;;;;;;15.25;13.70;;;22.40;99.90;;;;;;5097594;28;20476;-69
2021/06/18 04:40:18;;;;;;;18.17;14.43;;;22.50;99.90;;;;;;5097375;28;20027;-69
2021/06/18 04:42:43;;;;;;;18.23;13.27;;;22.70;99.90;;;;;;5096434;28;20059;-70
2021/06/18 04:45:10;;;;;;;17.92;13.40;;;22.90;99.90;;;;;;5095930;28;20035;-69
2021/06/18 04:47:36;;;;;;;16.00;12.68;;;23.40;99.90;;;;;;5096953;28;20146;-69
2021/06/18 04:50:02;;;;;;;17.67;12.63;;;23.70;99.90;;;;;;5096892;28;20058;-70
2021/06/18 04:52:28;;;;;;;16.13;12.07;;;23.80;99.90;;;;;;5097432;28;20028;-70
2021/06/18 04:54:55;;;;;;;15.15;12.65;;;24.00;99.90;;;;;;5097073;28;20020;-68
2021/06/18 04:57:22;;;;;;;18.33;12.40;;;24.20;99.90;;;;;;5096715;28;20054;-68
2021/06/18 04:59:47;;;;;;;15.65;12.18;;;24.30;99.90;;;;;;5097276;28;20525;-69
2021/06/18 05:02:13;;;;;;;14.07;11.02;;;24.50;99.90;;;;;;5097223;28;20103;-70
2021/06/18 05:04:38;;;;;;;17.00;12.40;;;24.70;99.90;;;;;;5096603;28;20095;-69
2021/06/18 05:07:04;;;;;;;15.82;12.00;;;24.90;99.90;;;;;;5096476;28;20052;-70
2021/06/18 05:09:30;;;;;;;17.63;12.10;;;24.90;99.90;;;;;;5095923;28;20068;-70
2021/06/18 05:11:55;;;;;;;14.70;11.45;;;25.60;99.90;;;;;;5078400;28;20032;-70
2021/06/18 05:14:21;;;;;;;14.63;10.90;;;26.50;99.90;;;;;;5096935;28;20027;-70
2021/06/18 05:16:47;;;;;;;16.45;11.00;;;26.70;99.90;;;;;;5095959;28;20377;-70
2021/06/18 05:19:12;;;;;;;15.40;11.20;;;26.90;99.90;;;;;;5096901;28;20020;-69
2021/06/18 05:21:38;;;;;;;17.23;11.35;;;27.70;99.90;;;;;;5078181;28;20392;-70
2021/06/18 05:24:05;;;;;;;14.18;11.27;;;27.80;99.90;;;;;;5095388;28;20111;-69
2021/06/18 05:26:32;;;;;;;16.35;11.45;;;27.40;99.90;;;;;;5078389;28;20081;-69
2021/06/18 05:28:58;;;;;;;14.27;11.30;;;27.30;99.90;;;;;;5077732;28;20046;-70
2021/06/18 05:31:24;;;;;;;12.43;10.88;;;27.20;99.90;;;;;;5096644;28;20024;-70
2021/06/18 05:33:49;;;;;;;13.48;10.25;;;27.40;99.90;;;;;;5096479;28;20389;-70
2021/06/18 05:36:15;;;;;;;15.13;10.90;;;28.00;99.90;;;;;;5096135;28;20025;-70
2021/06/18 05:38:41;;;;;;;12.10;10.13;;;28.00;99.90;;;;;;5096520;28;20097;-70
2021/06/18 05:41:06;;;;;;;16.15;10.52;;;27.10;99.90;;;;;;5096223;28;20025;-70
2021/06/18 05:43:32;;;;;;;14.73;9.80;;;26.80;99.90;;;;;;5096380;28;20125;-70
2021/06/18 05:45:57;;;;;;;12.65;10.10;;;26.70;99.90;;;;;;5096414;28;20093;-70
2021/06/18 05:48:23;;;;;;;14.68;10.10;;;26.40;99.90;;;;;;5096354;28;20066;-70
2021/06/18 05:50:51;;;;;;;16.58;10.95;;;26.00;99.90;;;;;;5096298;28;20465;-70
2021/06/18 05:53:18;;;;;;;15.63;10.90;;;25.60;99.90;;;;;;5096242;28;20033;-70
2021/06/18 05:55:44;;;;;;;13.98;10.70;;;25.30;99.90;;;;;;5095616;28;20070;-70
2021/06/18 05:58:10;;;;;;;13.40;9.35;;;25.90;99.90;;;;;;5096148;28;20560;-70
2021/06/18 06:00:36;;;;;;;13.98;9.70;;;27.00;99.90;;;;;;5096122;28;20095;-70
2021/06/18 06:03:01;;;;;;;13.50;9.32;;;27.80;99.90;;;;;;5093562;28;20032;-70
2021/06/18 06:05:27;;;;;;;15.35;8.85;;;28.30;99.90;;;;;;5093154;28;20085;-70
2021/06/18 06:07:53;;;;;;;11.10;8.88;;;29.40;99.90;;;;;;5094686;28;20067;-69
2021/06/18 06:10:19;;;;;;;11.73;8.38;;;30.10;99.90;;;;;;5095568;28;20024;-69
2021/06/18 06:12:45;;;;;;;13.07;8.05;;;30.40;99.90;;;;;;5093979;28;20397;-70
2021/06/18 06:15:11;;;;;;;12.25;8.70;;;30.30;99.90;;;;;;5093944;28;20089;-70
2021/06/18 06:17:37;;;;;;;9.77;8.05;;;31.00;99.90;;;;;;5094966;28;20415;-70
2021/06/18 06:20:05;;;;;;;9.48;8.23;;;31.60;99.90;;;;;;5093846;28;20107;-68
2021/06/18 06:22:30;;;;;;;13.07;9.00;;;32.30;99.90;;;;;;5095331;28;20016;-70
2021/06/18 06:24:56;;;;;;;15.13;8.65;;;31.70;99.90;;;;;;5095011;28;20027;-68
2021/06/18 06:27:21;;;;;;;9.00;8.00;;;31.70;99.90;;;;;;5094133;28;20069;-70
2021/06/18 06:29:47;;;;;;;11.40;9.15;;;31.80;99.90;;;;;;5093463;28;20161;-68
2021/06/18 06:32:12;;;;;;;12.82;8.48;;;31.90;99.70;;;;;;5094785;28;20038;-68
2021/06/18 06:34:38;;;;;;;9.98;8.30;;;31.70;99.90;;;;;;5095032;28;20035;-70
2021/06/18 06:37:04;;;;;;;10.75;8.93;;;33.00;99.40;;;;;;5093463;28;20035;-68
2021/06/18 06:39:29;;;;;;;10.93;8.30;;;32.10;99.90;;;;;;5076421;28;20031;-70
2021/06/18 06:41:55;;;;;;;13.23;8.98;;;31.80;99.90;;;;;;5085014;28;20025;-70
2021/06/18 06:44:20;;;;;;;16.70;9.57;;;32.10;99.90;;;;;;5073172;28;20032;-73
2021/06/18 06:46:46;;;;;;;14.48;9.75;;;32.10;99.50;;;;;;5074973;28;20032;-70
2021/06/18 06:49:11;;;;;;;10.68;9.05;;;32.40;98.90;;;;;;5092670;28;20043;-70
2021/06/18 06:51:37;;;;;;;12.23;8.55;;;32.60;98.90;;;;;;5084696;28;20036;-70
2021/06/18 06:54:03;;;;;;;13.88;8.90;;;33.60;97.60;;;;;;5091325;28;20508;-71
2021/06/18 06:56:31;;;;;;;13.88;8.80;;;33.30;97.40;;;;;;5090521;28;20035;-71
2021/06/18 06:58:57;;;;;;;15.10;9.30;;;33.40;97.00;;;;;;5094026;28;20035;-70
2021/06/18 07:01:23;;;;;;;14.27;9.48;;;33.10;98.00;;;;;;5092623;28;20103;-70
2021/06/18 07:03:48;;;;;;;13.40;9.82;;;32.80;97.50;;;;;;5093651;28;20055;-70
2021/06/18 07:06:14;;;;;;;10.48;8.68;;;33.30;97.90;;;;;;5074131;28;20048;-70
2021/06/18 07:08:49;;;;;;;13.70;8.93;;;33.70;97.10;;;;;;5092982;28;20020;-70
2021/06/18 07:11:15;;;;;;;12.77;9.57;;;33.00;98.40;;;;;;5092033;28;20496;-70
2021/06/18 07:13:41;;;;;;;10.18;8.20;;;32.60;98.10;;;;;;5092390;28;20024;-70
2021/06/18 07:16:08;;;;;;;15.25;9.10;;;33.00;97.90;;;;;;5092231;28;20031;-70
2021/06/18 07:18:35;;;;;;;13.98;8.55;;;32.90;97.30;;;;;;5072405;28;20029;-70
2021/06/18 07:21:01;;;;;;;10.77;8.23;;;33.10;98.90;;;;;;5063233;28;20112;-71
2021/06/18 07:23:26;;;;;;;9.55;7.72;;;33.20;98.00;;;;;;5090490;28;20103;-70
2021/06/18 07:25:52;;;;;;;13.10;8.68;;;33.50;97.30;;;;;;5092699;28;20016;-71
2021/06/18 07:28:17;;;;;;;10.90;7.85;;;33.70;96.30;;;;;;5054870;28;20033;-71
2021/06/18 07:30:43;;;;;;;10.60;8.50;;;34.60;95.80;;;;;;5082625;28;20022;-68
2021/06/18 07:33:09;;;;;;;14.75;8.70;;;34.50;94.70;;;;;;5071512;28;20164;-71
2021/06/18 07:35:35;;;;;;;15.00;8.40;;;33.80;95.60;;;;;;5084667;28;20107;-70
2021/06/18 07:38:01;;;;;;;12.45;8.45;;;33.50;96.10;;;;;;5091473;28;20039;-71
2021/06/18 07:40:26;;;;;;;13.82;8.63;;;34.40;94.90;;;;;;5092336;28;20081;-71
2021/06/18 07:42:52;;;;;;;15.73;8.77;;;34.40;94.50;;;;;;5083254;28;20025;-71
2021/06/18 07:45:19;;;;;;;11.02;8.10;;;34.70;93.70;;;;;;5079929;28;20024;-71
2021/06/18 07:47:44;;;;;;;9.55;8.55;;;34.00;95.30;;;;;;5093440;28;20025;-70
2021/06/18 07:50:12;;;;;;;12.27;9.75;;;34.10;94.70;;;;;;5092179;28;20482;-70
2021/06/18 07:52:38;;;;;;;14.00;8.82;;;34.00;94.70;;;;;;5093444;28;20027;-70
2021/06/18 07:55:06;;;;;;;11.73;8.32;;;34.30;95.50;;;;;;5092472;28;20504;-70
2021/06/18 07:57:32;;;;;;;13.02;10.07;;;33.60;95.90;;;;;;5091591;28;20515;-70
2021/06/18 07:59:57;;;;;;;13.25;9.50;;;33.10;96.40;;;;;;5092426;28;20067;-70
2021/06/18 08:02:23;;;;;;;12.80;8.98;;;33.10;97.20;;;;;;5091815;28;20488;-70
2021/06/18 08:04:48;;;;;;;13.75;10.55;;;33.80;96.50;;;;;;5090476;28;20016;-70
2021/06/18 08:07:14;;;;;;;16.35;10.90;;;33.60;96.60;;;;;;5100722;28;20032;-70
2021/06/18 08:09:40;;;;;;;17.35;10.20;;;33.90;96.40;;;;;;5075385;28;20044;-70
2021/06/18 08:12:05;;;;;;;15.05;11.75;;;34.40;96.40;;;;;;5090200;28;20028;-70
2021/06/18 08:14:31;;;;;;;13.90;10.95;;;34.60;95.30;;;;;;5092963;28;20119;-70
2021/06/18 08:16:57;;;;;;;13.20;11.00;;;33.60;96.10;;;;;;5090750;28;20051;-70
2021/06/18 08:19:22;;;;;;;13.85;10.55;;;33.90;96.00;;;;;;5091453;28;20028;-70
2021/06/18 08:21:48;;;;;;;15.80;10.52;;;34.60;95.90;;;;;;5091371;28;20031;-70
2021/06/18 08:24:13;;;;;;;13.05;10.95;;;34.40;95.90;;;;;;5074861;28;20027;-70
2021/06/18 08:26:39;;;;;;;13.27;11.57;;;34.30;95.30;;;;;;5089697;28;20020;-71
2021/06/18 08:29:05;;;;;;;15.27;11.57;;;34.20;95.60;;;;;;5073479;28;20029;-71
2021/06/18 08:31:31;;;;;;;16.75;12.07;;;33.30;96.70;;;;;;5081596;28;20542;-70
2021/06/18 08:33:57;;;;;;;13.07;11.45;;;33.70;96.60;;;;;;5089470;28;20469;-70
2021/06/18 08:36:23;;;;;;;12.57;11.07;;;34.10;97.00;;;;;;5085917;28;20429;-71
2021/06/18 08:38:50;;;;;;;16.77;11.82;;;34.30;95.80;;;;;;5072846;28;20058;-70
2021/06/18 08:41:15;;;;;;;15.55;12.52;;;34.10;96.50;;;;;;5088453;28;20016;-70
2021/06/18 08:43:41;;;;;;;17.55;13.38;;;33.70;96.50;;;;;;5091045;28;20021;-70
2021/06/18 08:46:07;;;;;;;17.75;13.90;;;33.90;96.60;;;;;;5091132;28;20377;-70
2021/06/18 08:48:33;;;;;;;16.85;14.95;;;34.50;95.20;;;;;;5092254;28;20485;-70
2021/06/18 08:51:02;;;;;;;15.27;12.10;;;33.70;95.70;;;;;;5080880;28;20111;-70
2021/06/18 08:53:32;;;;;;;17.63;14.40;;;33.60;97.30;;;;;;5087726;28;20103;-70
2021/06/18 08:55:57;;;;;;;17.27;15.48;;;34.10;96.50;;;;;;5088061;28;20047;-71
2021/06/18 08:58:23;;;;;;;15.30;13.85;;;33.50;95.90;;;;;;5088662;28;20388;-71
2021/06/18 09:00:51;;;;;;;16.42;14.65;;;33.90;96.60;;;;;;5091897;28;20024;-71
2021/06/18 09:03:41;;;;;;;16.40;14.70;;;34.30;95.90;;;;;;5091522;28;20024;-70
2021/06/18 09:06:31;;;;;;;18.80;13.10;;;34.10;96.00;;;;;;5088867;28;20032;-71
2021/06/18 09:09:21;;;;;;;15.15;13.55;;;35.00;95.50;;;;;;5095332;28;20111;-70
2021/06/18 09:11:50;;;;;;;16.05;13.10;;;35.10;94.90;;;;;;5094885;28;20028;-71
2021/06/18 09:17:22;;;;;;;16.42;14.93;;;35.00;94.30;;;;;;5120598;27;20211;-70
2021/06/18 09:19:51;;;;;;;16.35;12.60;;;34.80;94.30;;;;;;5109769;28;20073;-70
2021/06/18 09:22:22;;;;;;;15.25;12.88;;;35.70;95.00;;;;;;5109087;28;20020;-70
2021/06/18 09:25:09;;;;;;;15.32;13.82;;;35.80;93.90;;;;;;5101381;28;20059;-70
2021/06/18 09:27:38;;;;;;;17.20;15.07;;;35.60;93.40;;;;;;5108386;28;20020;-69
2021/06/18 09:30:32;;;;;;;16.15;13.25;;;34.70;94.20;;;;;;5109984;28;20518;-69
2021/06/18 09:33:04;;;;;;;16.42;14.13;;;35.00;93.50;;;;;;5108028;28;20055;-69
2021/06/18 09:35:30;;;;;;;13.88;12.20;;;35.20;93.00;;;;;;5108918;28;20026;-69
2021/06/18 09:38:00;;;;;;;15.75;13.88;;;35.50;92.80;;;;;;5088714;28;20039;-70
2021/06/18 09:40:27;;;;;;;15.95;13.23;;;35.40;92.50;;;;;;5110012;28;20123;-70
2021/06/18 09:42:59;;;;;;;16.88;14.02;;;35.50;92.90;;;;;;5109402;28;20460;-69
2021/06/18 09:45:30;;;;;;;17.73;13.90;;;35.20;94.00;;;;;;5110059;28;20024;-70
2021/06/18 09:48:16;;;;;;;18.02;13.90;;;35.80;93.60;;;;;;5105314;28;20032;-70
2021/06/18 09:50:45;;;;;;;16.58;13.15;;;36.00;92.80;;;;;;5089811;28;20027;-70
2021/06/18 09:53:15;;;;;;;14.43;12.82;;;36.50;92.80;;;;;;5105588;28;20448;-70
2021/06/18 09:55:45;;;;;;;13.73;12.27;;;36.60;91.80;;;;;;5108451;28;20111;-69
2021/06/18 09:58:11;;;;;;;14.88;13.48;;;36.40;91.90;;;;;;5105188;28;20021;-70
2021/06/18 10:00:37;;;;;;;11.52;9.40;;;36.60;91.20;;;;;;5089565;28;20023;-70
2021/06/18 10:03:07;;;;;;;12.05;10.88;;;36.50;91.00;;;;;;5092923;28;20024;-69
2021/06/18 10:05:36;;;;;;;13.23;11.82;;;37.00;88.50;;;;;;5107342;28;20387;-70
2021/06/18 10:08:03;;;;;;;14.23;12.43;;;35.60;90.70;;;;;;5108276;28;20480;-70
2021/06/18 10:10:31;;;;;;;16.80;12.25;;;36.40;91.40;;;;;;5108664;28;20469;-70
2021/06/18 10:12:57;;;;;;;14.68;13.27;;;36.90;91.00;;;;;;5089736;28;20032;-70
2021/06/18 10:15:26;;;;;;;13.85;11.35;;;36.00;91.00;;;;;;5109185;28;20040;-70
2021/06/18 10:17:55;;;;;;;12.60;11.40;;;36.00;91.40;;;;;;5089455;28;20077;-70
2021/06/18 10:20:24;;;;;;;12.85;10.15;;;36.20;90.40;;;;;;5106652;28;20023;-70
2021/06/18 10:23:13;;;;;;;11.48;9.32;;;36.00;89.60;;;;;;5092734;28;20470;-70
2021/06/18 10:25:44;;;;;;;13.63;9.07;;;36.80;86.40;;;;;;5103272;28;20039;-70
2021/06/18 10:28:17;;;;;;;11.35;8.20;;;37.30;83.80;;;;;;5096053;28;20485;-70
2021/06/18 10:30:48;;;;;;;14.95;10.00;;;37.50;82.30;;;;;;5080726;28;20039;-70
2021/06/18 10:33:33;;;;;;;11.95;8.38;;;37.20;83.30;;;;;;5077603;28;20020;-70
2021/06/18 10:36:02;;;;;;;14.60;8.77;;;37.00;82.80;;;;;;5095166;28;20366;-70
2021/06/18 10:38:42;;;;;;;13.75;7.25;;;37.40;83.20;;;;;;5094024;28;20012;-70
2021/06/18 10:43:52;;;;;;;12.73;5.97;;;36.70;80.00;;;;;;5126676;27;20596;-68
2021/06/18 10:46:29;;;;;;;11.30;7.30;;;36.30;77.30;;;;;;5108887;28;20024;-68
2021/06/18 10:48:58;;;;;;;10.23;8.20;;;35.30;83.70;;;;;;5104918;28;20028;-68
2021/06/18 10:51:32;;;;;;;10.93;7.93;;;34.80;85.30;;;;;;5081532;28;20038;-69
2021/06/18 10:54:04;;;;;;;14.30;7.90;;;34.20;89.20;;;;;;5098142;28;20043;-68
2021/06/18 10:59:39;;;;;;;15.32;7.43;;;34.00;88.60;;;;;;5118646;27;20157;-69
2021/06/18 11:05:00;;;;;;;12.93;7.70;;;35.00;84.90;;;;;;5118604;27;20132;-69
2021/06/18 11:07:30;;;;;;;11.43;8.77;;;34.90;84.60;;;;;;5109528;28;20027;-69
2021/06/18 11:10:17;;;;;;;20.67;8.38;;;33.90;86.00;;;;;;5101027;28;20111;-69
2021/06/18 11:12:45;;;;;;;12.55;8.55;;;33.60;88.00;;;;;;5099599;28;20423;-69
2021/06/18 11:18:11;;;;;;;10.35;7.20;;;34.70;86.00;;;;;;5113931;27;20138;-69
2021/06/18 11:23:16;;;;;;;11.65;7.72;;;34.90;85.90;;;;;;5106532;27;20148;-68
2021/06/18 11:31:06;;;;;;;14.07;7.20;;;34.20;84.50;;;;;;5116474;27;20399;-69
2021/06/18 11:33:53;;;;;;;11.35;6.68;;;33.80;87.60;;;;;;5089655;28;20469;-69
2021/06/18 11:39:14;;;;;;;8.75;6.25;;;33.50;87.70;;;;;;5115825;27;20571;-69
2021/06/18 11:41:43;;;;;;;13.98;6.63;;;33.50;86.90;;;;;;5105766;28;20055;-69
2021/06/18 11:44:11;;;;;;;8.13;5.80;;;33.50;86.20;;;;;;5106663;28;20016;-69
2021/06/18 11:46:38;;;;;;;11.60;6.60;;;33.10;88.10;;;;;;5107559;28;20373;-69
2021/06/18 11:49:22;;;;;;;10.02;7.13;;;33.20;88.80;;;;;;5107242;28;20478;-69
2021/06/18 11:51:51;;;;;;;13.15;6.35;;;32.90;89.70;;;;;;5095945;28;20023;-69
2021/06/18 11:54:23;;;;;;;12.95;6.45;;;33.10;89.80;;;;;;5110308;28;20024;-69
2021/06/18 11:56:57;;;;;;;12.20;6.60;;;33.20;87.50;;;;;;5088801;28;20082;-69
2021/06/18 11:59:23;;;;;;;12.35;6.97;;;32.60;90.00;;;;;;5104501;28;20043;-69
2021/06/18 12:01:48;;;;;;;10.48;6.43;;;32.40;90.10;;;;;;5108901;28;20024;-68
2021/06/18 12:04:16;;;;;;;19.00;6.88;;;32.30;92.40;;;;;;5110035;28;20107;-68
2021/06/18 12:06:42;;;;;;;10.55;6.65;;;32.40;92.10;;;;;;5109413;28;20024;-68
2021/06/18 12:09:18;;;;;;;11.55;7.15;;;32.00;93.80;;;;;;5107950;28;20377;-68
2021/06/18 12:11:51;;;;;;;14.95;6.57;;;31.70;91.40;;;;;;5118876;28;20455;-68
2021/06/18 12:14:16;;;;;;;;;;;31.50;91.10;;;;;;5105476;28;20123;-69
2021/06/18 12:16:44;;;;;;;10.05;6.85;;;31.60;91.90;;;;;;5110346;28;20351;-68
2021/06/18 12:19:28;;;;;;;9.43;6.63;;;31.70;91.90;;;;;;5109274;28;20043;-69
2021/06/18 12:22:00;;;;;;;15.45;7.97;;;31.80;92.20;;;;;;5090186;28;20024;-69
2021/06/18 12:24:32;;;;;;;16.83;7.50;;;32.10;93.20;;;;;;5105594;28;20024;-69
2021/06/18 12:26:58;;;;;;;14.25;6.90;;;32.20;91.30;;;;;;5108951;28;20036;-69
2021/06/18 12:29:25;;;;;;;13.43;7.28;;;32.30;90.10;;;;;;5109747;28;20020;-68
2021/06/18 12:31:53;;;;;;;12.02;7.22;;;32.40;90.90;;;;;;5105990;28;20047;-69
2021/06/18 12:34:19;;;;;;;15.27;7.05;;;31.80;92.70;;;;;;5098812;28;20106;-69
2021/06/18 12:36:44;;;;;;;12.05;6.88;;;32.00;93.70;;;;;;5105161;28;20219;-69
2021/06/18 12:39:13;;;;;;;14.05;7.35;;;32.10;92.10;;;;;;5097417;28;20111;-69
2021/06/18 12:41:39;;;;;;;13.35;6.40;;;32.20;91.50;;;;;;5091803;28;20016;-70
2021/06/18 12:44:07;;;;;;;9.50;6.47;;;32.60;92.40;;;;;;5112031;28;20028;-70
2021/06/18 12:46:33;;;;;;;7.32;6.05;;;32.80;91.40;;;;;;5104123;28;20093;-70
2021/06/18 12:49:14;;;;;;;11.57;6.78;;;32.50;91.60;;;;;;5094571;28;20030;-70
2021/06/18 12:51:39;;;;;;;14.05;6.75;;;32.90;90.80;;;;;;5078776;28;20029;-69
2021/06/18 12:54:07;;;;;;;13.68;6.35;;;33.20;90.40;;;;;;5081644;28;20013;-70
2021/06/18 12:56:48;;;;;;;13.07;6.25;;;33.70;89.90;;;;;;5077839;28;20028;-70
2021/06/18 12:59:15;;;;;;;11.30;6.32;;;34.10;86.60;;;;;;5075384;28;20033;-70
2021/06/18 13:01:42;;;;;;;14.38;6.25;;;34.00;87.40;;;;;;5076252;28;20501;-70
2021/06/18 13:04:10;;;;;;;12.55;6.57;;;34.00;89.30;;;;;;5075200;28;20465;-70